sensor_id;sensor_type;location;lat;lon;timestamp;noise_LAeq;noise_LA_min;noise_LA_max;noise_LA01;noise_LA95
74496;Laerm;62979;55.720;37.606;2023-06-26T00:00:10;46.53;37.55;61.54;;
74496;Laerm;62979;55.720;37.606;2023-06-26T00:02:37;40.65;36.74;54.65;;
74496;Laerm;62979;55.720;37.606;2023-06-26T00:05:05;40.43;36.84;51.77;;
74496;Laerm;62979;55.720;37.606;2023-06-26T00:07:34;44.23;37.41;57.47;;
74496;Laerm;62979;55.720;37.606;2023-06-26T00:10:01;40.16;36.63;44.64;;
74496;Laerm;62979;55.720;37.606;2023-06-26T00:12:30;40.18;36.93;43.80;;
74496;Laerm;62979;55.720;37.606;2023-06-26T00:14:58;41.61;37.39;51.34;;
74496;Laerm;62979;55.720;37.606;2023-06-26T00:17:25;45.85;37.05;58.41;;
74496;Laerm;62979;55.720;37.606;2023-06-26T00:19:52;50.09;37.00;66.36;;
74496;Laerm;62979;55.720;37.606;2023-06-26T00:22:21;42.38;37.12;58.91;;
74496;Laerm;62979;55.720;37.606;2023-06-26T00:24:49;42.94;36.89;55.76;;
74496;Laerm;62979;55.720;37.606;2023-06-26T00:27:16;46.88;37.99;57.46;;
74496;Laerm;62979;55.720;37.606;2023-06-26T00:29:43;42.31;36.99;56.04;;
74496;Laerm;62979;55.720;37.606;2023-06-26T00:32:10;46.39;37.15;63.35;;
74496;Laerm;62979;55.720;37.606;2023-06-26T00:34:36;42.51;37.55;55.08;;
74496;Laerm;62979;55.720;37.606;2023-06-26T00:37:04;41.11;36.75;51.07;;
74496;Laerm;62979;55.720;37.606;2023-06-26T00:39:30;41.05;36.95;50.60;;
74496;Laerm;62979;55.720;37.606;2023-06-26T00:41:59;45.82;37.11;57.25;;
74496;Laerm;62979;55.720;37.606;2023-06-26T00:44:26;45.52;37.07;56.44;;
74496;Laerm;62979;55.720;37.606;2023-06-26T00:46:53;45.80;36.97;58.02;;
74496;Laerm;62979;55.720;37.606;2023-06-26T00:49:20;41.20;35.92;53.50;;
74496;Laerm;62979;55.720;37.606;2023-06-26T00:51:48;40.51;36.53;53.47;;
74496;Laerm;62979;55.720;37.606;2023-06-26T00:54:14;45.09;36.86;60.28;;
74496;Laerm;62979;55.720;37.606;2023-06-26T00:56:45;40.79;36.88;51.03;;
74496;Laerm;62979;55.720;37.606;2023-06-26T00:59:15;42.28;37.18;55.01;;
74496;Laerm;62979;55.720;37.606;2023-06-26T01:01:42;40.85;35.66;51.82;;
74496;Laerm;62979;55.720;37.606;2023-06-26T01:04:09;46.37;37.07;57.10;;
74496;Laerm;62979;55.720;37.606;2023-06-26T01:06:44;41.09;36.69;48.08;;
74496;Laerm;62979;55.720;37.606;2023-06-26T01:09:17;43.45;37.27;54.50;;
74496;Laerm;62979;55.720;37.606;2023-06-26T01:11:45;46.83;37.80;59.69;;
74496;Laerm;62979;55.720;37.606;2023-06-26T01:14:13;46.44;37.06;56.62;;
74496;Laerm;62979;55.720;37.606;2023-06-26T01:16:43;45.05;36.28;59.41;;
74496;Laerm;62979;55.720;37.606;2023-06-26T01:19:19;42.29;37.14;56.88;;
74496;Laerm;62979;55.720;37.606;2023-06-26T01:21:56;40.72;36.88;45.16;;
74496;Laerm;62979;55.720;37.606;2023-06-26T01:24:32;41.65;36.98;48.43;;
74496;Laerm;62979;55.720;37.606;2023-06-26T01:27:05;42.78;37.49;50.27;;
74496;Laerm;62979;55.720;37.606;2023-06-26T01:29:33;44.46;37.00;56.52;;
74496;Laerm;62979;55.720;37.606;2023-06-26T01:32:01;44.75;36.76;56.35;;
74496;Laerm;62979;55.720;37.606;2023-06-26T01:34:29;51.73;38.10;63.62;;
74496;Laerm;62979;55.720;37.606;2023-06-26T01:36:56;45.28;36.46;60.89;;
74496;Laerm;62979;55.720;37.606;2023-06-26T01:39:24;41.28;35.49;56.07;;
74496;Laerm;62979;55.720;37.606;2023-06-26T01:41:51;40.81;36.83;53.97;;
74496;Laerm;62979;55.720;37.606;2023-06-26T01:44:28;40.04;36.59;48.68;;
74496;Laerm;62979;55.720;37.606;2023-06-26T01:47:01;40.63;36.78;46.73;;
74496;Laerm;62979;55.720;37.606;2023-06-26T01:49:44;48.66;37.88;64.39;;
74496;Laerm;62979;55.720;37.606;2023-06-26T01:52:20;48.30;38.84;71.04;;
74496;Laerm;62979;55.720;37.606;2023-06-26T01:55:00;45.85;38.74;62.33;;
74496;Laerm;62979;55.720;37.606;2023-06-26T01:57:31;45.14;37.72;55.74;;
74496;Laerm;62979;55.720;37.606;2023-06-26T02:00:02;46.81;37.75;60.84;;
74496;Laerm;62979;55.720;37.606;2023-06-26T02:02:29;46.49;37.85;62.97;;
74496;Laerm;62979;55.720;37.606;2023-06-26T02:04:56;45.76;37.79;62.44;;
74496;Laerm;62979;55.720;37.606;2023-06-26T02:07:23;41.47;37.56;50.82;;
74496;Laerm;62979;55.720;37.606;2023-06-26T02:09:50;41.61;36.97;53.07;;
74496;Laerm;62979;55.720;37.606;2023-06-26T02:12:17;42.56;36.31;54.87;;
74496;Laerm;62979;55.720;37.606;2023-06-26T02:14:44;42.51;37.44;59.03;;
74496;Laerm;62979;55.720;37.606;2023-06-26T02:17:12;40.82;36.85;50.84;;
74496;Laerm;62979;55.720;37.606;2023-06-26T02:19:39;42.48;36.87;58.08;;
74496;Laerm;62979;55.720;37.606;2023-06-26T02:22:12;44.84;36.41;59.78;;
74496;Laerm;62979;55.720;37.606;2023-06-26T02:24:39;47.84;37.01;61.58;;
74496;Laerm;62979;55.720;37.606;2023-06-26T02:27:06;47.62;36.71;61.30;;
74496;Laerm;62979;55.720;37.606;2023-06-26T02:29:33;48.29;36.98;64.68;;
74496;Laerm;62979;55.720;37.606;2023-06-26T02:32:00;41.27;36.55;58.64;;
74496;Laerm;62979;55.720;37.606;2023-06-26T02:34:29;44.88;37.03;60.69;;
74496;Laerm;62979;55.720;37.606;2023-06-26T02:36:56;43.96;36.89;61.20;;
74496;Laerm;62979;55.720;37.606;2023-06-26T02:39:24;47.74;37.91;61.01;;
74496;Laerm;62979;55.720;37.606;2023-06-26T02:41:51;45.60;37.65;66.11;;
74496;Laerm;62979;55.720;37.606;2023-06-26T02:44:18;46.69;38.65;57.08;;
74496;Laerm;62979;55.720;37.606;2023-06-26T02:46:45;49.57;38.33;60.06;;
74496;Laerm;62979;55.720;37.606;2023-06-26T02:49:11;46.93;39.30;57.39;;
74496;Laerm;62979;55.720;37.606;2023-06-26T02:51:40;45.78;39.07;59.75;;
74496;Laerm;62979;55.720;37.606;2023-06-26T02:54:07;48.78;38.84;62.91;;
74496;Laerm;62979;55.720;37.606;2023-06-26T02:56:33;45.99;38.51;63.17;;
74496;Laerm;62979;55.720;37.606;2023-06-26T02:59:00;48.40;38.72;62.88;;
74496;Laerm;62979;55.720;37.606;2023-06-26T03:01:27;44.43;38.75;55.46;;
74496;Laerm;62979;55.720;37.606;2023-06-26T03:03:54;45.79;39.43;56.67;;
74496;Laerm;62979;55.720;37.606;2023-06-26T03:06:21;48.46;39.11;60.70;;
74496;Laerm;62979;55.720;37.606;2023-06-26T03:08:49;55.54;50.03;63.87;;
74496;Laerm;62979;55.720;37.606;2023-06-26T03:11:16;62.94;48.21;71.95;;
74496;Laerm;62979;55.720;37.606;2023-06-26T03:13:43;48.01;39.73;60.05;;
74496;Laerm;62979;55.720;37.606;2023-06-26T03:16:10;52.18;40.29;65.01;;
74496;Laerm;62979;55.720;37.606;2023-06-26T03:18:37;46.39;40.75;55.46;;
74496;Laerm;62979;55.720;37.606;2023-06-26T03:21:04;55.58;40.90;67.58;;
74496;Laerm;62979;55.720;37.606;2023-06-26T03:23:34;54.30;41.06;67.27;;
74496;Laerm;62979;55.720;37.606;2023-06-26T03:26:02;62.55;49.99;69.29;;
74496;Laerm;62979;55.720;37.606;2023-06-26T03:28:29;50.41;41.15;68.39;;
74496;Laerm;62979;55.720;37.606;2023-06-26T03:30:57;50.81;39.78;63.56;;
74496;Laerm;62979;55.720;37.606;2023-06-26T03:33:24;51.85;41.22;60.70;;
74496;Laerm;62979;55.720;37.606;2023-06-26T03:35:51;46.71;39.77;55.83;;
74496;Laerm;62979;55.720;37.606;2023-06-26T03:38:19;51.78;41.72;71.26;;
74496;Laerm;62979;55.720;37.606;2023-06-26T03:40:46;54.84;42.66;64.04;;
74496;Laerm;62979;55.720;37.606;2023-06-26T03:43:14;50.13;40.78;71.11;;
74496;Laerm;62979;55.720;37.606;2023-06-26T03:45:41;50.29;41.09;61.42;;
74496;Laerm;62979;55.720;37.606;2023-06-26T03:48:08;52.17;41.32;67.33;;
74496;Laerm;62979;55.720;37.606;2023-06-26T03:50:35;46.47;40.30;55.83;;
74496;Laerm;62979;55.720;37.606;2023-06-26T03:53:02;52.98;40.74;66.94;;
74496;Laerm;62979;55.720;37.606;2023-06-26T03:55:29;59.49;41.71;76.96;;
74496;Laerm;62979;55.720;37.606;2023-06-26T03:57:56;48.93;40.36;59.07;;
74496;Laerm;62979;55.720;37.606;2023-06-26T04:00:24;51.74;40.23;69.28;;
74496;Laerm;62979;55.720;37.606;2023-06-26T04:02:51;49.49;41.27;59.14;;
74496;Laerm;62979;55.720;37.606;2023-06-26T04:05:18;55.34;42.80;68.82;;
74496;Laerm;62979;55.720;37.606;2023-06-26T04:07:45;47.18;39.48;55.89;;
74496;Laerm;62979;55.720;37.606;2023-06-26T04:10:12;49.52;40.48;67.15;;
74496;Laerm;62979;55.720;37.606;2023-06-26T04:12:39;51.49;41.34;66.96;;
74496;Laerm;62979;55.720;37.606;2023-06-26T04:15:07;49.89;40.35;60.70;;
74496;Laerm;62979;55.720;37.606;2023-06-26T04:17:36;51.83;42.02;63.29;;
74496;Laerm;62979;55.720;37.606;2023-06-26T04:20:03;50.07;41.33;61.07;;
74496;Laerm;62979;55.720;37.606;2023-06-26T04:22:32;59.01;45.24;74.77;;
74496;Laerm;62979;55.720;37.606;2023-06-26T04:25:02;55.66;42.78;66.94;;
74496;Laerm;62979;55.720;37.606;2023-06-26T04:27:30;53.04;41.57;71.38;;
74496;Laerm;62979;55.720;37.606;2023-06-26T04:29:57;53.38;44.74;68.08;;
74496;Laerm;62979;55.720;37.606;2023-06-26T04:32:24;53.10;45.30;67.12;;
74496;Laerm;62979;55.720;37.606;2023-06-26T04:34:52;54.97;45.77;63.62;;
74496;Laerm;62979;55.720;37.606;2023-06-26T04:37:19;55.10;44.27;71.99;;
74496;Laerm;62979;55.720;37.606;2023-06-26T04:39:46;62.05;44.02;69.07;;
74496;Laerm;62979;55.720;37.606;2023-06-26T04:42:13;58.57;50.57;65.75;;
74496;Laerm;62979;55.720;37.606;2023-06-26T04:44:39;53.27;45.35;60.88;;
74496;Laerm;62979;55.720;37.606;2023-06-26T04:47:07;51.73;41.99;60.83;;
74496;Laerm;62979;55.720;37.606;2023-06-26T04:49:34;50.76;42.49;59.34;;
74496;Laerm;62979;55.720;37.606;2023-06-26T04:52:03;50.94;42.52;59.99;;
74496;Laerm;62979;55.720;37.606;2023-06-26T04:54:30;52.52;44.75;63.42;;
74496;Laerm;62979;55.720;37.606;2023-06-26T04:56:57;56.69;48.82;63.22;;
74496;Laerm;62979;55.720;37.606;2023-06-26T04:59:25;57.40;49.42;69.01;;
74496;Laerm;62979;55.720;37.606;2023-06-26T05:01:52;57.76;51.75;67.43;;
74496;Laerm;62979;55.720;37.606;2023-06-26T05:04:19;58.85;48.94;76.29;;
74496;Laerm;62979;55.720;37.606;2023-06-26T05:06:45;56.95;48.40;64.64;;
74496;Laerm;62979;55.720;37.606;2023-06-26T05:09:14;52.76;41.81;63.77;;
74496;Laerm;62979;55.720;37.606;2023-06-26T05:11:41;53.60;43.36;62.22;;
74496;Laerm;62979;55.720;37.606;2023-06-26T05:14:07;54.93;43.86;62.68;;
74496;Laerm;62979;55.720;37.606;2023-06-26T05:16:34;52.98;43.05;61.85;;
74496;Laerm;62979;55.720;37.606;2023-06-26T05:19:02;56.33;46.14;77.26;;
74496;Laerm;62979;55.720;37.606;2023-06-26T05:21:29;55.29;45.46;63.82;;
74496;Laerm;62979;55.720;37.606;2023-06-26T05:23:57;54.57;43.26;65.72;;
74496;Laerm;62979;55.720;37.606;2023-06-26T05:26:27;54.27;43.37;62.34;;
74496;Laerm;62979;55.720;37.606;2023-06-26T05:28:55;52.99;42.21;63.38;;
74496;Laerm;62979;55.720;37.606;2023-06-26T05:31:23;53.35;42.04;61.92;;
74496;Laerm;62979;55.720;37.606;2023-06-26T05:33:50;52.39;44.37;59.96;;
74496;Laerm;62979;55.720;37.606;2023-06-26T05:36:20;56.28;45.19;69.26;;
74496;Laerm;62979;55.720;37.606;2023-06-26T05:38:50;54.20;45.58;63.77;;
74496;Laerm;62979;55.720;37.606;2023-06-26T05:41:17;56.13;46.62;63.62;;
74496;Laerm;62979;55.720;37.606;2023-06-26T05:43:46;52.39;43.29;69.24;;
74496;Laerm;62979;55.720;37.606;2023-06-26T05:46:13;53.11;44.67;60.52;;
74496;Laerm;62979;55.720;37.606;2023-06-26T05:48:40;61.17;47.60;71.59;;
74496;Laerm;62979;55.720;37.606;2023-06-26T05:51:08;59.12;47.59;68.53;;
74496;Laerm;62979;55.720;37.606;2023-06-26T05:53:36;56.22;46.20;73.83;;
74496;Laerm;62979;55.720;37.606;2023-06-26T05:56:03;54.29;44.22;63.25;;
74496;Laerm;62979;55.720;37.606;2023-06-26T05:58:31;54.40;45.46;63.16;;
74496;Laerm;62979;55.720;37.606;2023-06-26T06:01:00;58.79;45.79;71.54;;
74496;Laerm;62979;55.720;37.606;2023-06-26T06:03:26;52.68;44.56;60.83;;
74496;Laerm;62979;55.720;37.606;2023-06-26T06:05:53;55.32;45.75;68.21;;
74496;Laerm;62979;55.720;37.606;2023-06-26T06:08:20;53.90;45.06;64.67;;
74496;Laerm;62979;55.720;37.606;2023-06-26T06:10:47;53.91;46.12;62.52;;
74496;Laerm;62979;55.720;37.606;2023-06-26T06:13:14;53.89;42.95;63.34;;
74496;Laerm;62979;55.720;37.606;2023-06-26T06:15:41;57.02;44.18;72.01;;
74496;Laerm;62979;55.720;37.606;2023-06-26T06:18:09;53.32;44.46;60.36;;
74496;Laerm;62979;55.720;37.606;2023-06-26T06:20:36;53.77;43.16;67.08;;
74496;Laerm;62979;55.720;37.606;2023-06-26T06:23:03;51.18;43.53;61.14;;
74496;Laerm;62979;55.720;37.606;2023-06-26T06:25:30;55.28;44.00;68.98;;
74496;Laerm;62979;55.720;37.606;2023-06-26T06:27:57;56.17;47.40;65.20;;
74496;Laerm;62979;55.720;37.606;2023-06-26T06:30:24;54.12;45.59;68.56;;
74496;Laerm;62979;55.720;37.606;2023-06-26T06:32:50;54.35;46.48;68.65;;
74496;Laerm;62979;55.720;37.606;2023-06-26T06:35:19;54.75;45.03;67.88;;
74496;Laerm;62979;55.720;37.606;2023-06-26T06:37:46;53.57;45.64;69.97;;
74496;Laerm;62979;55.720;37.606;2023-06-26T06:40:14;53.26;46.21;60.04;;
74496;Laerm;62979;55.720;37.606;2023-06-26T06:42:41;54.47;45.64;66.51;;
74496;Laerm;62979;55.720;37.606;2023-06-26T06:45:09;54.94;46.35;65.30;;
74496;Laerm;62979;55.720;37.606;2023-06-26T06:47:36;59.15;46.46;72.66;;
74496;Laerm;62979;55.720;37.606;2023-06-26T06:50:04;60.38;47.05;73.36;;
74496;Laerm;62979;55.720;37.606;2023-06-26T06:52:37;55.81;49.02;68.92;;
74496;Laerm;62979;55.720;37.606;2023-06-26T06:55:07;55.12;46.56;64.06;;
74496;Laerm;62979;55.720;37.606;2023-06-26T06:57:36;54.69;47.52;66.24;;
74496;Laerm;62979;55.720;37.606;2023-06-26T07:00:07;55.77;48.47;67.08;;
74496;Laerm;62979;55.720;37.606;2023-06-26T07:02:35;56.07;47.65;69.71;;
74496;Laerm;62979;55.720;37.606;2023-06-26T07:05:02;57.36;49.78;71.12;;
74496;Laerm;62979;55.720;37.606;2023-06-26T07:07:31;54.73;47.79;61.75;;
74496;Laerm;62979;55.720;37.606;2023-06-26T07:10:03;56.88;50.41;63.17;;
74496;Laerm;62979;55.720;37.606;2023-06-26T07:12:31;57.02;50.08;63.84;;
74496;Laerm;62979;55.720;37.606;2023-06-26T07:15:00;55.29;49.85;63.10;;
74496;Laerm;62979;55.720;37.606;2023-06-26T07:17:28;54.05;49.01;60.16;;
74496;Laerm;62979;55.720;37.606;2023-06-26T07:19:55;57.87;49.85;67.95;;
74496;Laerm;62979;55.720;37.606;2023-06-26T07:22:21;55.44;49.76;60.53;;
74496;Laerm;62979;55.720;37.606;2023-06-26T07:24:48;56.89;50.60;62.73;;
74496;Laerm;62979;55.720;37.606;2023-06-26T07:27:17;55.35;47.83;63.90;;
74496;Laerm;62979;55.720;37.606;2023-06-26T07:29:44;55.33;47.76;61.58;;
74496;Laerm;62979;55.720;37.606;2023-06-26T07:32:11;56.58;52.28;63.38;;
74496;Laerm;62979;55.720;37.606;2023-06-26T07:34:38;57.05;53.21;63.12;;
74496;Laerm;62979;55.720;37.606;2023-06-26T07:37:05;60.54;51.80;78.95;;
74496;Laerm;62979;55.720;37.606;2023-06-26T07:39:32;53.42;43.65;75.23;;
74496;Laerm;62979;55.720;37.606;2023-06-26T07:41:59;54.04;47.88;60.64;;
74496;Laerm;62979;55.720;37.606;2023-06-26T07:44:29;54.09;46.57;76.43;;
74496;Laerm;62979;55.720;37.606;2023-06-26T07:46:55;55.70;46.42;65.04;;
74496;Laerm;62979;55.720;37.606;2023-06-26T07:49:23;56.31;47.14;65.86;;
74496;Laerm;62979;55.720;37.606;2023-06-26T07:51:50;54.35;47.57;64.02;;
74496;Laerm;62979;55.720;37.606;2023-06-26T07:54:17;54.80;47.05;66.59;;
74496;Laerm;62979;55.720;37.606;2023-06-26T07:56:55;55.99;48.16;67.92;;
74496;Laerm;62979;55.720;37.606;2023-06-26T07:59:24;56.31;48.15;68.68;;
74496;Laerm;62979;55.720;37.606;2023-06-26T08:01:55;59.81;50.19;83.66;;
74496;Laerm;62979;55.720;37.606;2023-06-26T08:04:24;55.26;47.35;67.32;;
74496;Laerm;62979;55.720;37.606;2023-06-26T08:06:54;56.15;44.45;65.75;;
74496;Laerm;62979;55.720;37.606;2023-06-26T08:09:24;54.43;47.88;64.97;;
74496;Laerm;62979;55.720;37.606;2023-06-26T08:11:51;62.04;49.82;83.44;;
74496;Laerm;62979;55.720;37.606;2023-06-26T08:14:18;62.40;49.74;75.65;;
74496;Laerm;62979;55.720;37.606;2023-06-26T08:16:46;60.32;51.58;78.98;;
74496;Laerm;62979;55.720;37.606;2023-06-26T08:19:16;59.65;50.73;77.00;;
74496;Laerm;62979;55.720;37.606;2023-06-26T08:21:45;56.34;50.35;66.90;;
74496;Laerm;62979;55.720;37.606;2023-06-26T08:24:13;55.93;47.07;68.49;;
74496;Laerm;62979;55.720;37.606;2023-06-26T08:26:41;57.13;49.57;67.46;;
74496;Laerm;62979;55.720;37.606;2023-06-26T08:29:08;56.43;48.95;63.63;;
74496;Laerm;62979;55.720;37.606;2023-06-26T08:31:35;54.34;47.23;69.13;;
74496;Laerm;62979;55.720;37.606;2023-06-26T08:34:02;53.96;44.23;69.60;;
74496;Laerm;62979;55.720;37.606;2023-06-26T08:36:31;54.68;45.97;63.99;;
74496;Laerm;62979;55.720;37.606;2023-06-26T08:38:58;54.57;46.55;65.36;;
74496;Laerm;62979;55.720;37.606;2023-06-26T08:41:25;56.24;44.80;68.38;;
74496;Laerm;62979;55.720;37.606;2023-06-26T08:43:52;55.62;48.45;69.29;;
74496;Laerm;62979;55.720;37.606;2023-06-26T08:46:20;59.77;46.26;76.27;;
74496;Laerm;62979;55.720;37.606;2023-06-26T08:48:51;54.99;44.03;65.24;;
74496;Laerm;62979;55.720;37.606;2023-06-26T08:51:24;53.28;44.74;72.79;;
74496;Laerm;62979;55.720;37.606;2023-06-26T08:53:57;53.67;44.30;71.57;;
74496;Laerm;62979;55.720;37.606;2023-06-26T08:56:28;53.01;44.04;62.89;;
74496;Laerm;62979;55.720;37.606;2023-06-26T08:58:55;53.78;45.30;65.93;;
74496;Laerm;62979;55.720;37.606;2023-06-26T09:01:22;52.10;43.96;64.92;;
74496;Laerm;62979;55.720;37.606;2023-06-26T09:03:51;54.11;45.26;63.53;;
74496;Laerm;62979;55.720;37.606;2023-06-26T09:06:18;53.39;45.04;61.55;;
74496;Laerm;62979;55.720;37.606;2023-06-26T09:08:45;53.70;45.89;65.57;;
74496;Laerm;62979;55.720;37.606;2023-06-26T09:11:14;54.39;47.00;62.61;;
74496;Laerm;62979;55.720;37.606;2023-06-26T09:13:42;55.47;46.93;75.61;;
74496;Laerm;62979;55.720;37.606;2023-06-26T09:16:10;55.40;46.79;70.93;;
74496;Laerm;62979;55.720;37.606;2023-06-26T09:18:40;54.59;45.10;68.55;;
74496;Laerm;62979;55.720;37.606;2023-06-26T09:21:08;54.53;44.80;72.43;;
74496;Laerm;62979;55.720;37.606;2023-06-26T09:23:36;54.57;45.58;66.37;;
74496;Laerm;62979;55.720;37.606;2023-06-26T09:26:04;53.17;46.27;64.60;;
74496;Laerm;62979;55.720;37.606;2023-06-26T09:28:34;54.56;45.75;68.99;;
74496;Laerm;62979;55.720;37.606;2023-06-26T09:31:02;52.54;45.54;62.65;;
74496;Laerm;62979;55.720;37.606;2023-06-26T09:33:33;54.07;45.47;63.40;;
74496;Laerm;62979;55.720;37.606;2023-06-26T09:36:05;54.93;45.74;62.37;;
74496;Laerm;62979;55.720;37.606;2023-06-26T09:38:33;54.37;46.53;63.65;;
74496;Laerm;62979;55.720;37.606;2023-06-26T09:41:00;54.23;45.54;71.62;;
74496;Laerm;62979;55.720;37.606;2023-06-26T09:43:27;54.30;46.45;65.36;;
74496;Laerm;62979;55.720;37.606;2023-06-26T09:45:55;53.24;45.40;69.85;;
74496;Laerm;62979;55.720;37.606;2023-06-26T09:48:22;54.61;45.92;61.45;;
74496;Laerm;62979;55.720;37.606;2023-06-26T09:50:49;52.47;45.00;62.46;;
74496;Laerm;62979;55.720;37.606;2023-06-26T09:53:16;54.02;45.90;69.23;;
74496;Laerm;62979;55.720;37.606;2023-06-26T09:55:44;57.05;47.94;68.52;;
74496;Laerm;62979;55.720;37.606;2023-06-26T09:58:12;55.71;46.80;65.42;;
74496;Laerm;62979;55.720;37.606;2023-06-26T10:00:40;56.88;48.65;70.69;;
74496;Laerm;62979;55.720;37.606;2023-06-26T10:03:10;53.36;44.40;62.75;;
74496;Laerm;62979;55.720;37.606;2023-06-26T10:05:38;54.40;45.69;60.70;;
74496;Laerm;62979;55.720;37.606;2023-06-26T10:08:06;54.94;47.69;62.05;;
74496;Laerm;62979;55.720;37.606;2023-06-26T10:10:36;53.84;45.57;61.56;;
74496;Laerm;62979;55.720;37.606;2023-06-26T10:13:11;56.01;45.61;66.16;;
74496;Laerm;62979;55.720;37.606;2023-06-26T10:15:45;51.78;46.56;59.95;;
74496;Laerm;62979;55.720;37.606;2023-06-26T10:18:17;54.97;47.07;74.49;;
74496;Laerm;62979;55.720;37.606;2023-06-26T10:20:48;55.28;48.03;64.60;;
74496;Laerm;62979;55.720;37.606;2023-06-26T10:23:19;53.04;45.48;62.87;;
74496;Laerm;62979;55.720;37.606;2023-06-26T10:25:51;53.37;45.74;60.50;;
74496;Laerm;62979;55.720;37.606;2023-06-26T10:28:21;55.57;46.53;64.23;;
74496;Laerm;62979;55.720;37.606;2023-06-26T10:30:51;54.43;47.17;61.74;;
74496;Laerm;62979;55.720;37.606;2023-06-26T10:33:22;54.09;43.90;63.54;;
74496;Laerm;62979;55.720;37.606;2023-06-26T10:35:49;53.46;45.06;68.38;;
74496;Laerm;62979;55.720;37.606;2023-06-26T10:38:17;54.90;47.89;63.13;;
74496;Laerm;62979;55.720;37.606;2023-06-26T10:40:46;54.77;45.52;63.61;;
74496;Laerm;62979;55.720;37.606;2023-06-26T10:43:15;55.67;46.12;79.73;;
74496;Laerm;62979;55.720;37.606;2023-06-26T10:45:46;53.21;45.52;63.89;;
74496;Laerm;62979;55.720;37.606;2023-06-26T10:48:17;53.80;45.44;60.81;;
74496;Laerm;62979;55.720;37.606;2023-06-26T10:50:48;53.80;44.00;62.73;;
74496;Laerm;62979;55.720;37.606;2023-06-26T10:53:22;55.41;46.21;69.15;;
74496;Laerm;62979;55.720;37.606;2023-06-26T10:55:57;52.72;46.50;63.17;;
74496;Laerm;62979;55.720;37.606;2023-06-26T10:58:29;55.63;46.52;68.65;;
74496;Laerm;62979;55.720;37.606;2023-06-26T11:01:18;53.86;45.09;63.57;;
74496;Laerm;62979;55.720;37.606;2023-06-26T11:03:48;52.45;43.93;61.27;;
74496;Laerm;62979;55.720;37.606;2023-06-26T11:06:19;54.94;44.47;72.46;;
74496;Laerm;62979;55.720;37.606;2023-06-26T11:08:48;54.58;44.98;64.29;;
74496;Laerm;62979;55.720;37.606;2023-06-26T11:11:15;56.83;47.51;79.48;;
74496;Laerm;62979;55.720;37.606;2023-06-26T11:13:45;54.17;45.80;61.51;;
74496;Laerm;62979;55.720;37.606;2023-06-26T11:16:14;53.41;47.13;61.78;;
74496;Laerm;62979;55.720;37.606;2023-06-26T11:18:42;56.82;48.84;70.12;;
74496;Laerm;62979;55.720;37.606;2023-06-26T11:21:10;59.22;47.10;74.16;;
74496;Laerm;62979;55.720;37.606;2023-06-26T11:23:41;59.30;47.07;72.82;;
74496;Laerm;62979;55.720;37.606;2023-06-26T11:26:17;55.42;45.99;66.96;;
74496;Laerm;62979;55.720;37.606;2023-06-26T11:28:50;54.01;44.42;62.04;;
74496;Laerm;62979;55.720;37.606;2023-06-26T11:31:25;54.53;44.88;62.15;;
74496;Laerm;62979;55.720;37.606;2023-06-26T11:33:53;53.04;46.02;59.92;;
74496;Laerm;62979;55.720;37.606;2023-06-26T11:36:23;53.49;44.63;64.98;;
74496;Laerm;62979;55.720;37.606;2023-06-26T11:38:56;53.50;46.51;61.37;;
74496;Laerm;62979;55.720;37.606;2023-06-26T11:41:25;52.24;45.75;59.56;;
74496;Laerm;62979;55.720;37.606;2023-06-26T11:43:52;54.33;47.55;65.10;;
74496;Laerm;62979;55.720;37.606;2023-06-26T11:46:21;53.71;46.20;64.19;;
74496;Laerm;62979;55.720;37.606;2023-06-26T11:48:49;56.06;47.40;75.30;;
74496;Laerm;62979;55.720;37.606;2023-06-26T11:51:16;55.21;47.38;75.45;;
74496;Laerm;62979;55.720;37.606;2023-06-26T11:53:45;53.88;45.69;63.02;;
74496;Laerm;62979;55.720;37.606;2023-06-26T11:56:16;55.89;48.04;63.62;;
74496;Laerm;62979;55.720;37.606;2023-06-26T11:59:00;51.63;45.58;57.14;;
74496;Laerm;62979;55.720;37.606;2023-06-26T12:01:32;53.99;46.77;68.88;;
74496;Laerm;62979;55.720;37.606;2023-06-26T12:04:03;54.66;47.13;66.45;;
74496;Laerm;62979;55.720;37.606;2023-06-26T12:06:34;53.26;43.26;62.06;;
74496;Laerm;62979;55.720;37.606;2023-06-26T12:09:05;54.15;47.40;72.33;;
74496;Laerm;62979;55.720;37.606;2023-06-26T12:11:34;56.82;50.67;66.32;;
74496;Laerm;62979;55.720;37.606;2023-06-26T12:14:02;62.96;52.47;81.18;;
74496;Laerm;62979;55.720;37.606;2023-06-26T12:16:31;61.59;56.02;72.29;;
74496;Laerm;62979;55.720;37.606;2023-06-26T12:18:59;60.83;55.31;65.50;;
74496;Laerm;62979;55.720;37.606;2023-06-26T12:21:45;61.76;56.66;66.42;;
74496;Laerm;62979;55.720;37.606;2023-06-26T12:24:15;64.34;58.77;75.09;;
74496;Laerm;62979;55.720;37.606;2023-06-26T12:26:45;60.28;52.15;70.02;;
74496;Laerm;62979;55.720;37.606;2023-06-26T12:29:15;58.20;51.71;75.39;;
74496;Laerm;62979;55.720;37.606;2023-06-26T12:31:44;60.61;51.10;65.79;;
74496;Laerm;62979;55.720;37.606;2023-06-26T12:34:12;61.26;55.30;72.00;;
74496;Laerm;62979;55.720;37.606;2023-06-26T12:36:44;59.14;46.99;67.70;;
74496;Laerm;62979;55.720;37.606;2023-06-26T12:39:11;53.25;45.27;67.02;;
74496;Laerm;62979;55.720;37.606;2023-06-26T12:41:48;56.71;49.77;64.36;;
74496;Laerm;62979;55.720;37.606;2023-06-26T12:44:20;55.43;46.34;66.56;;
74496;Laerm;62979;55.720;37.606;2023-06-26T12:46:48;54.07;45.82;65.82;;
74496;Laerm;62979;55.720;37.606;2023-06-26T12:49:16;54.47;45.97;63.72;;
74496;Laerm;62979;55.720;37.606;2023-06-26T12:51:45;52.75;45.28;60.71;;
74496;Laerm;62979;55.720;37.606;2023-06-26T12:54:12;57.43;49.56;69.15;;
74496;Laerm;62979;55.720;37.606;2023-06-26T12:56:39;55.52;45.66;70.68;;
74496;Laerm;62979;55.720;37.606;2023-06-26T12:59:07;54.26;46.17;65.87;;
74496;Laerm;62979;55.720;37.606;2023-06-26T13:01:34;54.10;44.79;62.18;;
74496;Laerm;62979;55.720;37.606;2023-06-26T13:04:02;53.74;44.68;66.30;;
74496;Laerm;62979;55.720;37.606;2023-06-26T13:06:30;52.09;44.92;63.74;;
74496;Laerm;62979;55.720;37.606;2023-06-26T13:08:58;52.32;44.78;63.56;;
74496;Laerm;62979;55.720;37.606;2023-06-26T13:11:25;52.30;46.42;62.19;;
74496;Laerm;62979;55.720;37.606;2023-06-26T13:13:52;54.92;45.89;64.35;;
74496;Laerm;62979;55.720;37.606;2023-06-26T13:16:20;54.46;47.29;62.21;;
74496;Laerm;62979;55.720;37.606;2023-06-26T13:18:47;53.16;45.44;62.52;;
74496;Laerm;62979;55.720;37.606;2023-06-26T13:21:14;52.73;43.34;61.84;;
74496;Laerm;62979;55.720;37.606;2023-06-26T13:23:42;57.31;47.51;65.23;;
74496;Laerm;62979;55.720;37.606;2023-06-26T13:26:09;53.86;44.45;60.77;;
74496;Laerm;62979;55.720;37.606;2023-06-26T13:28:36;55.07;43.61;65.17;;
74496;Laerm;62979;55.720;37.606;2023-06-26T13:31:04;54.44;45.98;64.49;;
74496;Laerm;62979;55.720;37.606;2023-06-26T13:33:32;57.21;47.08;67.62;;
74496;Laerm;62979;55.720;37.606;2023-06-26T13:35:59;64.50;51.74;81.46;;
74496;Laerm;62979;55.720;37.606;2023-06-26T13:38:27;56.86;50.88;63.36;;